sensor_id;sensor_type;location;lat;lon;timestamp;temperature;humidity
52058;DHT22;38063;53.210;6.504;2023-05-20T00:01:21;10.90;99.90
52058;DHT22;38063;53.210;6.504;2023-05-20T00:03:47;10.90;99.90
52058;DHT22;38063;53.210;6.504;2023-05-20T00:06:12;10.90;99.90
52058;DHT22;38063;53.210;6.504;2023-05-20T00:08:38;10.90;99.90
52058;DHT22;38063;53.210;6.504;2023-05-20T00:11:04;11.20;99.90
52058;DHT22;38063;53.210;6.504;2023-05-20T00:13:29;10.90;99.90
52058;DHT22;38063;53.210;6.504;2023-05-20T00:15:55;11.20;99.90
52058;DHT22;38063;53.210;6.504;2023-05-20T00:18:21;10.90;99.90
52058;DHT22;38063;53.210;6.504;2023-05-20T00:20:46;11.30;99.90
52058;DHT22;38063;53.210;6.504;2023-05-20T00:23:12;10.90;99.90
52058;DHT22;38063;53.210;6.504;2023-05-20T00:25:38;10.90;99.90
52058;DHT22;38063;53.210;6.504;2023-05-20T00:28:05;10.80;99.90
52058;DHT22;38063;53.210;6.504;2023-05-20T00:30:31;10.80;99.90
52058;DHT22;38063;53.210;6.504;2023-05-20T00:32:56;10.80;99.90
52058;DHT22;38063;53.210;6.504;2023-05-20T00:35:22;10.80;99.90
52058;DHT22;38063;53.210;6.504;2023-05-20T00:37:48;10.80;99.90
52058;DHT22;38063;53.210;6.504;2023-05-20T00:40:13;10.80;99.90
52058;DHT22;38063;53.210;6.504;2023-05-20T00:42:40;10.80;99.90
52058;DHT22;38063;53.210;6.504;2023-05-20T00:45:06;10.80;99.90
52058;DHT22;38063;53.210;6.504;2023-05-20T00:47:33;10.70;99.90
52058;DHT22;38063;53.210;6.504;2023-05-20T00:50:00;10.70;99.90
52058;DHT22;38063;53.210;6.504;2023-05-20T00:52:28;10.70;99.90
52058;DHT22;38063;53.210;6.504;2023-05-20T00:54:55;10.70;99.90
52058;DHT22;38063;53.210;6.504;2023-05-20T00:57:22;10.80;99.90
52058;DHT22;38063;53.210;6.504;2023-05-20T00:59:47;10.90;99.90
52058;DHT22;38063;53.210;6.504;2023-05-20T01:02:13;10.70;99.90
52058;DHT22;38063;53.210;6.504;2023-05-20T01:04:39;10.70;99.90
52058;DHT22;38063;53.210;6.504;2023-05-20T01:07:06;10.70;99.90
52058;DHT22;38063;53.210;6.504;2023-05-20T01:09:32;10.70;99.90
52058;DHT22;38063;53.210;6.504;2023-05-20T01:12:06;10.70;99.90
52058;DHT22;38063;53.210;6.504;2023-05-20T01:14:41;10.80;99.90
52058;DHT22;38063;53.210;6.504;2023-05-20T01:17:09;10.70;99.90
52058;DHT22;38063;53.210;6.504;2023-05-20T01:19:44;10.70;99.90
52058;DHT22;38063;53.210;6.504;2023-05-20T01:22:11;10.90;99.90
52058;DHT22;38063;53.210;6.504;2023-05-20T01:24:42;10.70;99.90
52058;DHT22;38063;53.210;6.504;2023-05-20T01:27:11;10.70;99.90
52058;DHT22;38063;53.210;6.504;2023-05-20T01:29:39;10.70;99.90
52058;DHT22;38063;53.210;6.504;2023-05-20T01:34:55;10.70;99.90
52058;DHT22;38063;53.210;6.504;2023-05-20T01:37:22;10.80;99.90
52058;DHT22;38063;53.210;6.504;2023-05-20T01:39:49;10.60;99.90
52058;DHT22;38063;53.210;6.504;2023-05-20T01:42:16;10.60;99.90
52058;DHT22;38063;53.210;6.504;2023-05-20T01:44:44;10.60;99.90
52058;DHT22;38063;53.210;6.504;2023-05-20T01:47:09;10.60;99.90
52058;DHT22;38063;53.210;6.504;2023-05-20T01:49:35;10.60;99.90
52058;DHT22;38063;53.210;6.504;2023-05-20T01:52:01;10.50;99.90
52058;DHT22;38063;53.210;6.504;2023-05-20T01:54:26;10.50;99.90
52058;DHT22;38063;53.210;6.504;2023-05-20T01:56:52;10.50;99.90
52058;DHT22;38063;53.210;6.504;2023-05-20T01:59:18;10.40;99.90
52058;DHT22;38063;53.210;6.504;2023-05-20T02:01:43;10.40;99.90
52058;DHT22;38063;53.210;6.504;2023-05-20T02:04:10;10.40;99.90
52058;DHT22;38063;53.210;6.504;2023-05-20T02:06:36;10.40;99.90
52058;DHT22;38063;53.210;6.504;2023-05-20T02:09:02;10.40;99.90
52058;DHT22;38063;53.210;6.504;2023-05-20T02:11:27;10.30;99.90
52058;DHT22;38063;53.210;6.504;2023-05-20T02:13:53;10.30;99.90
52058;DHT22;38063;53.210;6.504;2023-05-20T02:16:19;10.30;99.90
52058;DHT22;38063;53.210;6.504;2023-05-20T02:18:44;10.30;99.90
52058;DHT22;38063;53.210;6.504;2023-05-20T02:21:10;10.30;99.90
52058;DHT22;38063;53.210;6.504;2023-05-20T02:23:36;10.20;99.90
52058;DHT22;38063;53.210;6.504;2023-05-20T02:26:02;10.30;99.90
52058;DHT22;38063;53.210;6.504;2023-05-20T02:28:28;10.20;99.90
52058;DHT22;38063;53.210;6.504;2023-05-20T02:30:53;10.20;99.90
52058;DHT22;38063;53.210;6.504;2023-05-20T02:33:19;10.20;99.90
52058;DHT22;38063;53.210;6.504;2023-05-20T02:35:45;10.20;99.90
52058;DHT22;38063;53.210;6.504;2023-05-20T02:38:11;10.20;99.90
52058;DHT22;38063;53.210;6.504;2023-05-20T02:40:37;10.20;99.90
52058;DHT22;38063;53.210;6.504;2023-05-20T02:43:03;10.20;99.90
52058;DHT22;38063;53.210;6.504;2023-05-20T02:45:29;10.20;99.90
52058;DHT22;38063;53.210;6.504;2023-05-20T02:47:55;10.10;99.90
52058;DHT22;38063;53.210;6.504;2023-05-20T02:50:21;10.10;99.90
52058;DHT22;38063;53.210;6.504;2023-05-20T02:52:46;10.60;99.90
52058;DHT22;38063;53.210;6.504;2023-05-20T02:55:12;10.10;99.90
52058;DHT22;38063;53.210;6.504;2023-05-20T02:57:38;10.10;99.90
52058;DHT22;38063;53.210;6.504;2023-05-20T03:00:05;10.60;99.90
52058;DHT22;38063;53.210;6.504;2023-05-20T03:02:32;10.10;99.90
52058;DHT22;38063;53.210;6.504;2023-05-20T03:04:58;10.10;99.90
52058;DHT22;38063;53.210;6.504;2023-05-20T03:07:24;10.10;99.90
52058;DHT22;38063;53.210;6.504;2023-05-20T03:09:49;10.10;99.90
52058;DHT22;38063;53.210;6.504;2023-05-20T03:12:15;10.10;99.90
52058;DHT22;38063;53.210;6.504;2023-05-20T03:14:41;10.10;99.90
52058;DHT22;38063;53.210;6.504;2023-05-20T03:17:07;10.10;99.90
52058;DHT22;38063;53.210;6.504;2023-05-20T03:19:33;10.60;99.90
52058;DHT22;38063;53.210;6.504;2023-05-20T03:22:00;10.40;99.90
52058;DHT22;38063;53.210;6.504;2023-05-20T03:24:26;10.20;99.90
52058;DHT22;38063;53.210;6.504;2023-05-20T03:26:52;10.20;99.90
52058;DHT22;38063;53.210;6.504;2023-05-20T03:29:17;10.30;99.90
52058;DHT22;38063;53.210;6.504;2023-05-20T03:31:43;10.10;99.90
52058;DHT22;38063;53.210;6.504;2023-05-20T03:34:09;10.10;99.90
52058;DHT22;38063;53.210;6.504;2023-05-20T03:36:34;10.20;99.90
52058;DHT22;38063;53.210;6.504;2023-05-20T03:39:00;10.10;99.90
52058;DHT22;38063;53.210;6.504;2023-05-20T03:41:27;10.00;99.90
52058;DHT22;38063;53.210;6.504;2023-05-20T03:43:52;10.00;99.90
52058;DHT22;38063;53.210;6.504;2023-05-20T03:46:18;10.00;99.90
52058;DHT22;38063;53.210;6.504;2023-05-20T03:48:44;10.00;99.90
52058;DHT22;38063;53.210;6.504;2023-05-20T03:51:09;10.00;99.90
52058;DHT22;38063;53.210;6.504;2023-05-20T03:53:35;10.40;99.90
52058;DHT22;38063;53.210;6.504;2023-05-20T03:56:01;10.00;99.90
52058;DHT22;38063;53.210;6.504;2023-05-20T03:58:26;10.30;99.90
52058;DHT22;38063;53.210;6.504;2023-05-20T04:00:54;10.00;99.90
52058;DHT22;38063;53.210;6.504;2023-05-20T04:03:20;10.00;99.90
52058;DHT22;38063;53.210;6.504;2023-05-20T04:05:47;10.10;99.90
52058;DHT22;38063;53.210;6.504;2023-05-20T04:08:13;10.00;99.90
52058;DHT22;38063;53.210;6.504;2023-05-20T04:10:41;10.30;99.90
52058;DHT22;38063;53.210;6.504;2023-05-20T04:13:07;10.30;99.90
52058;DHT22;38063;53.210;6.504;2023-05-20T04:15:37;10.10;99.90
52058;DHT22;38063;53.210;6.504;2023-05-20T04:18:06;10.20;99.90
52058;DHT22;38063;53.210;6.504;2023-05-20T04:20:31;10.50;99.90
52058;DHT22;38063;53.210;6.504;2023-05-20T04:22:57;10.20;99.90
52058;DHT22;38063;53.210;6.504;2023-05-20T04:25:23;10.30;99.90
52058;DHT22;38063;53.210;6.504;2023-05-20T04:27:50;10.30;99.90
52058;DHT22;38063;53.210;6.504;2023-05-20T04:30:18;10.30;99.90
52058;DHT22;38063;53.210;6.504;2023-05-20T04:32:47;10.40;99.90
52058;DHT22;38063;53.210;6.504;2023-05-20T04:35:13;10.40;99.90
52058;DHT22;38063;53.210;6.504;2023-05-20T04:37:39;10.50;99.90
52058;DHT22;38063;53.210;6.504;2023-05-20T04:40:06;10.50;99.90
52058;DHT22;38063;53.210;6.504;2023-05-20T04:42:33;10.50;99.90
52058;DHT22;38063;53.210;6.504;2023-05-20T04:44:59;10.60;99.90
52058;DHT22;38063;53.210;6.504;2023-05-20T04:47:27;10.60;99.90
52058;DHT22;38063;53.210;6.504;2023-05-20T04:49:54;10.70;99.90
52058;DHT22;38063;53.210;6.504;2023-05-20T04:52:25;10.70;99.90
52058;DHT22;38063;53.210;6.504;2023-05-20T04:54:51;10.80;99.90
52058;DHT22;38063;53.210;6.504;2023-05-20T04:57:17;10.80;99.90
52058;DHT22;38063;53.210;6.504;2023-05-20T04:59:46;10.90;99.90
52058;DHT22;38063;53.210;6.504;2023-05-20T05:02:12;10.90;99.90
52058;DHT22;38063;53.210;6.504;2023-05-20T05:04:39;10.90;99.90
52058;DHT22;38063;53.210;6.504;2023-05-20T05:07:04;11.00;99.90
52058;DHT22;38063;53.210;6.504;2023-05-20T05:09:30;11.00;99.90
52058;DHT22;38063;53.210;6.504;2023-05-20T05:11:56;11.10;99.90
52058;DHT22;38063;53.210;6.504;2023-05-20T05:14:21;11.10;99.90
52058;DHT22;38063;53.210;6.504;2023-05-20T05:16:48;11.10;99.90
52058;DHT22;38063;53.210;6.504;2023-05-20T05:19:14;11.20;99.90
52058;DHT22;38063;53.210;6.504;2023-05-20T05:21:40;11.20;99.90
52058;DHT22;38063;53.210;6.504;2023-05-20T05:24:06;11.20;99.90
52058;DHT22;38063;53.210;6.504;2023-05-20T05:26:32;11.30;99.90
52058;DHT22;38063;53.210;6.504;2023-05-20T05:28:57;11.40;99.90
52058;DHT22;38063;53.210;6.504;2023-05-20T05:31:23;11.30;99.90
52058;DHT22;38063;53.210;6.504;2023-05-20T05:33:49;11.90;99.90
52058;DHT22;38063;53.210;6.504;2023-05-20T05:36:15;11.60;99.90
52058;DHT22;38063;53.210;6.504;2023-05-20T05:38:41;11.50;99.90
52058;DHT22;38063;53.210;6.504;2023-05-20T05:41:07;11.70;99.90
52058;DHT22;38063;53.210;6.504;2023-05-20T05:43:33;11.80;99.90
52058;DHT22;38063;53.210;6.504;2023-05-20T05:45:59;12.00;99.90
52058;DHT22;38063;53.210;6.504;2023-05-20T05:48:24;12.30;99.90
52058;DHT22;38063;53.210;6.504;2023-05-20T05:50:50;12.60;99.90
52058;DHT22;38063;53.210;6.504;2023-05-20T05:53:15;12.80;99.90
52058;DHT22;38063;53.210;6.504;2023-05-20T05:55:41;13.00;99.90
52058;DHT22;38063;53.210;6.504;2023-05-20T05:58:07;13.20;99.90
52058;DHT22;38063;53.210;6.504;2023-05-20T06:00:32;13.30;99.90
52058;DHT22;38063;53.210;6.504;2023-05-20T06:02:58;13.50;99.90
52058;DHT22;38063;53.210;6.504;2023-05-20T06:05:24;13.60;99.90
52058;DHT22;38063;53.210;6.504;2023-05-20T06:07:50;13.70;99.90
52058;DHT22;38063;53.210;6.504;2023-05-20T06:10:15;13.90;99.90
52058;DHT22;38063;53.210;6.504;2023-05-20T06:12:41;14.00;99.90
52058;DHT22;38063;53.210;6.504;2023-05-20T06:15:07;14.10;99.90
52058;DHT22;38063;53.210;6.504;2023-05-20T06:17:33;14.10;99.90
52058;DHT22;38063;53.210;6.504;2023-05-20T06:19:58;14.30;99.90
52058;DHT22;38063;53.210;6.504;2023-05-20T06:22:24;14.40;99.90
52058;DHT22;38063;53.210;6.504;2023-05-20T06:24:50;14.50;99.90
52058;DHT22;38063;53.210;6.504;2023-05-20T06:27:16;14.60;99.90
52058;DHT22;38063;53.210;6.504;2023-05-20T06:29:41;14.70;99.90
52058;DHT22;38063;53.210;6.504;2023-05-20T06:32:07;14.80;99.90
52058;DHT22;38063;53.210;6.504;2023-05-20T06:34:33;14.90;99.90
52058;DHT22;38063;53.210;6.504;2023-05-20T06:36:59;15.00;99.90
52058;DHT22;38063;53.210;6.504;2023-05-20T06:39:24;15.10;99.90
52058;DHT22;38063;53.210;6.504;2023-05-20T06:41:50;15.20;99.90
52058;DHT22;38063;53.210;6.504;2023-05-20T06:44:17;15.20;99.90
52058;DHT22;38063;53.210;6.504;2023-05-20T06:46:43;15.30;99.90
52058;DHT22;38063;53.210;6.504;2023-05-20T06:49:09;15.30;99.90
52058;DHT22;38063;53.210;6.504;2023-05-20T06:51:34;15.50;99.90
52058;DHT22;38063;53.210;6.504;2023-05-20T06:54:00;15.50;99.90
52058;DHT22;38063;53.210;6.504;2023-05-20T06:56:26;15.50;99.90
52058;DHT22;38063;53.210;6.504;2023-05-20T06:58:51;15.50;99.90
52058;DHT22;38063;53.210;6.504;2023-05-20T07:03:52;15.70;99.90
52058;DHT22;38063;53.210;6.504;2023-05-20T07:06:18;15.90;99.90
52058;DHT22;38063;53.210;6.504;2023-05-20T07:08:44;16.00;99.90
52058;DHT22;38063;53.210;6.504;2023-05-20T07:11:09;16.30;99.90
52058;DHT22;38063;53.210;6.504;2023-05-20T07:13:36;16.40;99.90
52058;DHT22;38063;53.210;6.504;2023-05-20T07:16:02;16.60;99.90
52058;DHT22;38063;53.210;6.504;2023-05-20T07:18:27;16.60;99.90
52058;DHT22;38063;53.210;6.504;2023-05-20T07:20:53;16.80;99.90
52058;DHT22;38063;53.210;6.504;2023-05-20T07:23:21;16.80;99.90
52058;DHT22;38063;53.210;6.504;2023-05-20T07:25:47;16.90;99.90
52058;DHT22;38063;53.210;6.504;2023-05-20T07:28:15;17.00;99.90
52058;DHT22;38063;53.210;6.504;2023-05-20T07:30:42;17.20;99.90
52058;DHT22;38063;53.210;6.504;2023-05-20T07:33:14;17.30;99.90
52058;DHT22;38063;53.210;6.504;2023-05-20T07:35:40;17.20;99.90
52058;DHT22;38063;53.210;6.504;2023-05-20T07:38:06;17.30;99.90
52058;DHT22;38063;53.210;6.504;2023-05-20T07:40:31;17.40;99.90
52058;DHT22;38063;53.210;6.504;2023-05-20T07:42:57;17.30;99.90
52058;DHT22;38063;53.210;6.504;2023-05-20T07:45:22;17.30;99.90
52058;DHT22;38063;53.210;6.504;2023-05-20T07:47:48;17.20;99.90
52058;DHT22;38063;53.210;6.504;2023-05-20T07:50:14;17.20;99.90
52058;DHT22;38063;53.210;6.504;2023-05-20T07:52:40;17.20;99.90
52058;DHT22;38063;53.210;6.504;2023-05-20T07:55:05;17.40;99.90
52058;DHT22;38063;53.210;6.504;2023-05-20T07:57:31;17.50;99.90
52058;DHT22;38063;53.210;6.504;2023-05-20T07:59:57;17.40;99.90
52058;DHT22;38063;53.210;6.504;2023-05-20T08:02:22;17.40;99.90
52058;DHT22;38063;53.210;6.504;2023-05-20T08:04:48;17.40;99.90
52058;DHT22;38063;53.210;6.504;2023-05-20T08:07:14;17.50;99.90
52058;DHT22;38063;53.210;6.504;2023-05-20T08:09:39;17.80;99.90
52058;DHT22;38063;53.210;6.504;2023-05-20T08:12:05;18.00;99.90
52058;DHT22;38063;53.210;6.504;2023-05-20T08:14:31;18.10;99.90
52058;DHT22;38063;53.210;6.504;2023-05-20T08:16:57;18.20;99.90
52058;DHT22;38063;53.210;6.504;2023-05-20T08:19:22;18.30;99.90
52058;DHT22;38063;53.210;6.504;2023-05-20T08:21:48;18.30;99.90
52058;DHT22;38063;53.210;6.504;2023-05-20T08:24:14;18.50;99.90
52058;DHT22;38063;53.210;6.504;2023-05-20T08:26:39;18.70;99.90
52058;DHT22;38063;53.210;6.504;2023-05-20T08:29:05;18.90;99.90
52058;DHT22;38063;53.210;6.504;2023-05-20T08:31:32;19.00;99.90
52058;DHT22;38063;53.210;6.504;2023-05-20T08:33:58;19.10;99.90
52058;DHT22;38063;53.210;6.504;2023-05-20T08:36:24;19.20;99.60
52058;DHT22;38063;53.210;6.504;2023-05-20T08:38:50;19.30;99.30
52058;DHT22;38063;53.210;6.504;2023-05-20T08:41:16;19.20;98.90
52058;DHT22;38063;53.210;6.504;2023-05-20T08:43:42;19.40;99.10
52058;DHT22;38063;53.210;6.504;2023-05-20T08:46:09;19.50;98.60
52058;DHT22;38063;53.210;6.504;2023-05-20T08:48:36;19.70;98.10
52058;DHT22;38063;53.210;6.504;2023-05-20T08:51:02;19.80;97.80
52058;DHT22;38063;53.210;6.504;2023-05-20T08:53:28;19.90;97.70
52058;DHT22;38063;53.210;6.504;2023-05-20T08:55:56;19.90;97.60
52058;DHT22;38063;53.210;6.504;2023-05-20T08:58:24;19.90;96.60
52058;DHT22;38063;53.210;6.504;2023-05-20T09:00:51;19.80;96.80
52058;DHT22;38063;53.210;6.504;2023-05-20T09:03:17;19.90;96.70
52058;DHT22;38063;53.210;6.504;2023-05-20T09:05:45;19.90;97.10
52058;DHT22;38063;53.210;6.504;2023-05-20T09:08:11;19.90;96.80
52058;DHT22;38063;53.210;6.504;2023-05-20T09:10:39;19.90;96.60
52058;DHT22;38063;53.210;6.504;2023-05-20T09:13:05;20.00;96.60
52058;DHT22;38063;53.210;6.504;2023-05-20T09:15:32;20.10;96.50
52058;DHT22;38063;53.210;6.504;2023-05-20T09:18:02;20.30;96.20
52058;DHT22;38063;53.210;6.504;2023-05-20T09:20:29;20.30;95.70
52058;DHT22;38063;53.210;6.504;2023-05-20T09:23:00;20.40;95.80
52058;DHT22;38063;53.210;6.504;2023-05-20T09:25:26;20.50;95.40
52058;DHT22;38063;53.210;6.504;2023-05-20T09:27:51;20.80;95.50
52058;DHT22;38063;53.210;6.504;2023-05-20T09:30:18;20.90;95.60
52058;DHT22;38063;53.210;6.504;2023-05-20T09:32:44;21.10;95.20
52058;DHT22;38063;53.210;6.504;2023-05-20T09:35:13;21.30;94.70
52058;DHT22;38063;53.210;6.504;2023-05-20T09:37:42;21.20;94.50
52058;DHT22;38063;53.210;6.504;2023-05-20T09:40:11;21.40;94.60
52058;DHT22;38063;53.210;6.504;2023-05-20T09:42:51;21.70;94.40
52058;DHT22;38063;53.210;6.504;2023-05-20T09:45:18;21.70;92.70
52058;DHT22;38063;53.210;6.504;2023-05-20T09:47:44;21.60;93.30
52058;DHT22;38063;53.210;6.504;2023-05-20T09:50:10;21.60;93.60
52058;DHT22;38063;53.210;6.504;2023-05-20T09:52:38;21.70;93.40
52058;DHT22;38063;53.210;6.504;2023-05-20T09:55:07;21.60;93.00
52058;DHT22;38063;53.210;6.504;2023-05-20T09:57:35;21.70;92.90
52058;DHT22;38063;53.210;6.504;2023-05-20T10:00:03;21.60;92.50
52058;DHT22;38063;53.210;6.504;2023-05-20T10:02:33;21.60;92.70
52058;DHT22;38063;53.210;6.504;2023-05-20T10:05:03;21.50;92.70
52058;DHT22;38063;53.210;6.504;2023-05-20T10:20:59;20.90;92.60
52058;DHT22;38063;53.210;6.504;2023-05-20T10:23:29;20.70;93.40
52058;DHT22;38063;53.210;6.504;2023-05-20T10:25:56;20.90;94.20
52058;DHT22;38063;53.210;6.504;2023-05-20T10:28:35;21.00;93.70
52058;DHT22;38063;53.210;6.504;2023-05-20T10:31:02;21.30;94.30
52058;DHT22;38063;53.210;6.504;2023-05-20T10:33:28;21.40;93.90
52058;DHT22;38063;53.210;6.504;2023-05-20T10:35:58;21.30;94.10
52058;DHT22;38063;53.210;6.504;2023-05-20T10:38:24;21.40;93.60
52058;DHT22;38063;53.210;6.504;2023-05-20T10:40:51;21.10;93.60
52058;DHT22;38063;53.210;6.504;2023-05-20T10:43:25;21.10;93.90
52058;DHT22;38063;53.210;6.504;2023-05-20T10:45:56;20.70;93.20
52058;DHT22;38063;53.210;6.504;2023-05-20T10:48:30;20.60;94.00
52058;DHT22;38063;53.210;6.504;2023-05-20T10:51:00;20.80;94.10
52058;DHT22;38063;53.210;6.504;2023-05-20T10:53:38;20.60;94.50
52058;DHT22;38063;53.210;6.504;2023-05-20T10:56:04;20.20;94.40
52058;DHT22;38063;53.210;6.504;2023-05-20T10:58:38;19.80;95.00
52058;DHT22;38063;53.210;6.504;2023-05-20T11:01:04;19.70;95.50
52058;DHT22;38063;53.210;6.504;2023-05-20T11:03:30;19.90;95.90
52058;DHT22;38063;53.210;6.504;2023-05-20T11:05:56;20.10;95.90
52058;DHT22;38063;53.210;6.504;2023-05-20T11:08:21;20.10;96.00
52058;DHT22;38063;53.210;6.504;2023-05-20T11:10:47;20.20;95.90
52058;DHT22;38063;53.210;6.504;2023-05-20T11:13:13;20.20;95.60
52058;DHT22;38063;53.210;6.504;2023-05-20T11:15:40;19.90;95.60
52058;DHT22;38063;53.210;6.504;2023-05-20T11:18:06;19.80;96.00
52058;DHT22;38063;53.210;6.504;2023-05-20T11:20:32;19.50;96.10
52058;DHT22;38063;53.210;6.504;2023-05-20T11:23:01;19.40;96.40
52058;DHT22;38063;53.210;6.504;2023-05-20T11:25:30;19.40;97.00
52058;DHT22;38063;53.210;6.504;2023-05-20T11:27:57;19.60;97.40
52058;DHT22;38063;53.210;6.504;2023-05-20T11:30:23;19.80;97.60
52058;DHT22;38063;53.210;6.504;2023-05-20T11:33:00;20.00;98.00
52058;DHT22;38063;53.210;6.504;2023-05-20T11:35:27;20.20;98.20
52058;DHT22;38063;53.210;6.504;2023-05-20T11:38:02;20.00;97.80
52058;DHT22;38063;53.210;6.504;2023-05-20T11:40:31;19.70;98.00
52058;DHT22;38063;53.210;6.504;2023-05-20T11:43:02;19.50;98.70
52058;DHT22;38063;53.210;6.504;2023-05-20T11:45:42;19.40;99.20
52058;DHT22;38063;53.210;6.504;2023-05-20T11:48:08;19.60;99.10
52058;DHT22;38063;53.210;6.504;2023-05-20T11:50:36;19.70;98.90
52058;DHT22;38063;53.210;6.504;2023-05-20T11:53:04;20.00;98.90
52058;DHT22;38063;53.210;6.504;2023-05-20T11:55:31;20.30;99.00
52058;DHT22;38063;53.210;6.504;2023-05-20T11:57:58;20.30;98.30
52058;DHT22;38063;53.210;6.504;2023-05-20T12:00:24;20.50;98.30
52058;DHT22;38063;53.210;6.504;2023-05-20T12:02:50;20.70;98.10
52058;DHT22;38063;53.210;6.504;2023-05-20T12:05:16;20.80;97.70
52058;DHT22;38063;53.210;6.504;2023-05-20T12:07:42;20.80;97.50
52058;DHT22;38063;53.210;6.504;2023-05-20T12:10:09;20.80;97.60
52058;DHT22;38063;53.210;6.504;2023-05-20T12:12:35;20.80;97.80
52058;DHT22;38063;53.210;6.504;2023-05-20T12:15:03;20.70;97.20
52058;DHT22;38063;53.210;6.504;2023-05-20T12:17:34;20.50;97.40
52058;DHT22;38063;53.210;6.504;2023-05-20T12:20:08;20.40;97.30
52058;DHT22;38063;53.210;6.504;2023-05-20T12:22:34;20.20;97.90
52058;DHT22;38063;53.210;6.504;2023-05-20T12:25:00;20.30;98.50
52058;DHT22;38063;53.210;6.504;2023-05-20T12:27:26;20.50;98.20
52058;DHT22;38063;53.210;6.504;2023-05-20T12:29:51;20.70;98.20
52058;DHT22;38063;53.210;6.504;2023-05-20T12:32:17;20.90;97.80
52058;DHT22;38063;53.210;6.504;2023-05-20T12:34:42;21.00;96.70
52058;DHT22;38063;53.210;6.504;2023-05-20T12:37:08;21.10;96.80
52058;DHT22;38063;53.210;6.504;2023-05-20T12:39:34;21.20;97.40
52058;DHT22;38063;53.210;6.504;2023-05-20T12:41:59;21.00;97.00
52058;DHT22;38063;53.210;6.504;2023-05-20T12:44:25;20.70;96.90
52058;DHT22;38063;53.210;6.504;2023-05-20T12:46:53;20.50;97.20
52058;DHT22;38063;53.210;6.504;2023-05-20T12:49:18;20.20;97.20
52058;DHT22;38063;53.210;6.504;2023-05-20T12:51:44;20.00;97.50
52058;DHT22;38063;53.210;6.504;2023-05-20T12:54:10;19.90;98.10
52058;DHT22;38063;53.210;6.504;2023-05-20T12:56:35;20.10;98.50
52058;DHT22;38063;53.210;6.504;2023-05-20T12:59:01;20.10;98.40
52058;DHT22;38063;53.210;6.504;2023-05-20T13:01:27;20.10;98.30
52058;DHT22;38063;53.210;6.504;2023-05-20T13:03:52;20.00;98.80
52058;DHT22;38063;53.210;6.504;2023-05-20T13:06:19;20.00;98.80
52058;DHT22;38063;53.210;6.504;2023-05-20T13:08:45;19.90;99.00
52058;DHT22;38063;53.210;6.504;2023-05-20T13:11:11;19.80;98.70
52058;DHT22;38063;53.210;6.504;2023-05-20T13:13:36;19.90;98.90
52058;DHT22;38063;53.210;6.504;2023-05-20T13:16:02;20.00;99.30
52058;DHT22;38063;53.210;6.504;2023-05-20T13:18:28;20.10;98.90
52058;DHT22;38063;53.210;6.504;2023-05-20T13:20:54;20.00;98.60
52058;DHT22;38063;53.210;6.504;2023-05-20T13:23:19;19.80;98.40
52058;DHT22;38063;53.210;6.504;2023-05-20T13:25:45;19.60;98.70
52058;DHT22;38063;53.210;6.504;2023-05-20T13:28:11;19.40;99.20
52058;DHT22;38063;53.210;6.504;2023-05-20T13:30:40;19.50;99.70
52058;DHT22;38063;53.210;6.504;2023-05-20T13:33:06;19.60;99.50
52058;DHT22;38063;53.210;6.504;2023-05-20T13:35:32;19.50;99.20
52058;DHT22;38063;53.210;6.504;2023-05-20T13:37:58;19.40;99.20
52058;DHT22;38063;53.210;6.504;2023-05-20T13:40:24;19.40;99.60
52058;DHT22;38063;53.210;6.504;2023-05-20T13:42:50;19.30;99.70
52058;DHT22;38063;53.210;6.504;2023-05-20T13:45:15;19.40;99.90
52058;DHT22;38063;53.210;6.504;2023-05-20T13:47:42;19.70;99.80
52058;DHT22;38063;53.210;6.504;2023-05-20T13:50:09;19.70;99.90
52058;DHT22;38063;53.210;6.504;2023-05-20T13:52:34;19.70;99.50
52058;DHT22;38063;53.210;6.504;2023-05-20T13:55:00;19.40;99.70
52058;DHT22;38063;53.210;6.504;2023-05-20T13:57:26;19.10;99.90
52058;DHT22;38063;53.210;6.504;2023-05-20T13:59:52;19.10;99.90
52058;DHT22;38063;53.210;6.504;2023-05-20T14:02:18;19.40;99.90
52058;DHT22;38063;53.210;6.504;2023-05-20T14:04:43;19.70;99.90
52058;DHT22;38063;53.210;6.504;2023-05-20T14:07:11;19.80;99.90
52058;DHT22;38063;53.210;6.504;2023-05-20T14:09:37;19.80;99.80
52058;DHT22;38063;53.210;6.504;2023-05-20T14:12:04;19.70;99.60
52058;DHT22;38063;53.210;6.504;2023-05-20T14:14:30;19.40;99.80
52058;DHT22;38063;53.210;6.504;2023-05-20T14:16:55;19.30;99.90
52058;DHT22;38063;53.210;6.504;2023-05-20T14:19:21;19.10;99.90
52058;DHT22;38063;53.210;6.504;2023-05-20T14:21:47;19.00;99.90
52058;DHT22;38063;53.210;6.504;2023-05-20T14:24:12;19.00;99.90
52058;DHT22;38063;53.210;6.504;2023-05-20T14:26:38;19.20;99.90
52058;DHT22;38063;53.210;6.504;2023-05-20T14:29:04;19.30;99.90
52058;DHT22;38063;53.210;6.504;2023-05-20T14:31:29;19.30;99.90
52058;DHT22;38063;53.210;6.504;2023-05-20T14:33:55;19.30;99.80
52058;DHT22;38063;53.210;6.504;2023-05-20T14:36:21;19.50;99.90
52058;DHT22;38063;53.210;6.504;2023-05-20T14:38:46;19.70;99.10
52058;DHT22;38063;53.210;6.504;2023-05-20T14:41:12;19.70;98.60
52058;DHT22;38063;53.210;6.504;2023-05-20T14:43:38;19.50;98.40
52058;DHT22;38063;53.210;6.504;2023-05-20T14:46:03;19.50;98.80
52058;DHT22;38063;53.210;6.504;2023-05-20T14:48:29;19.50;98.80
52058;DHT22;38063;53.210;6.504;2023-05-20T14:50:55;19.50;99.00
52058;DHT22;38063;53.210;6.504;2023-05-20T14:53:21;19.40;99.00
52058;DHT22;38063;53.210;6.504;2023-05-20T14:55:47;19.20;99.10
52058;DHT22;38063;53.210;6.504;2023-05-20T14:58:13;19.20;99.30
52058;DHT22;38063;53.210;6.504;2023-05-20T15:00:39;19.30;99.60
52058;DHT22;38063;53.210;6.504;2023-05-20T15:03:04;19.30;99.10
52058;DHT22;38063;53.210;6.504;2023-05-20T15:05:30;19.20;99.10
52058;DHT22;38063;53.210;6.504;2023-05-20T15:07:56;19.10;98.60
52058;DHT22;38063;53.210;6.504;2023-05-20T15:10:22;18.90;98.60
52058;DHT22;38063;53.210;6.504;2023-05-20T15:12:48;18.70;98.80
52058;DHT22;38063;53.210;6.504;2023-05-20T15:15:13;18.60;99.10
52058;DHT22;38063;53.210;6.504;2023-05-20T15:17:39;18.50;99.30
52058;DHT22;38063;53.210;6.504;2023-05-20T15:20:05;18.40;99.00
52058;DHT22;38063;53.210;6.504;2023-05-20T15:22:31;18.40;99.00
52058;DHT22;38063;53.210;6.504;2023-05-20T15:24:57;18.40;99.20
52058;DHT22;38063;53.210;6.504;2023-05-20T15:27:22;18.50;99.40
52058;DHT22;38063;53.210;6.504;2023-05-20T15:29:48;18.40;99.30
52058;DHT22;38063;53.210;6.504;2023-05-20T15:32:14;18.40;99.10
52058;DHT22;38063;53.210;6.504;2023-05-20T15:34:39;18.30;99.00
52058;DHT22;38063;53.210;6.504;2023-05-20T15:37:05;18.20;99.10
52058;DHT22;38063;53.210;6.504;2023-05-20T15:39:31;18.20;99.20
52058;DHT22;38063;53.210;6.504;2023-05-20T15:41:56;18.40;99.40
52058;DHT22;38063;53.210;6.504;2023-05-20T15:44:24;18.40;99.30